Time;durP1;ratioP1;P1;durP2;ratioP2;P2;SDS_P1;SDS_P2;PMS_P1;PMS_P2;Temp;Humidity;BMP_temperature;BMP_pressure;BME280_temperature;BME280_humidity;BME280_pressure;Samples;Min_cycle;Max_cycle;Signal;HPM_P1;HPM_P2
2021/09/06 00:00:15;;;;;;;;;;;;;;;;;;5028143;28;19920;-82
2021/09/06 00:02:59;;;;;;;;;;;;;;;;;;5039460;28;19920;-80
2021/09/06 00:05:43;;;;;;;;;;;;;;;;;;5017507;28;20302;-81
2021/09/06 00:08:27;;;;;;;;;;;;;;;;;;5029899;28;19928;-81
2021/09/06 00:11:12;;;;;;;;;;;;;;;;;;5018073;28;20329;-81
2021/09/06 00:13:56;;;;;;;;;;;;;;;;;;5035807;28;19920;-81
2021/09/06 00:16:40;;;;;;;;;;;;;;;;;;5036912;28;19920;-81
2021/09/06 00:19:25;;;;;;;;;;;;;;;;;;5036586;28;19921;-81
2021/09/06 00:22:10;;;;;;;;;;;;;;;;;;5034411;28;19928;-81
2021/09/06 00:24:54;;;;;;;;;;;;;;;;;;5037748;28;19921;-81
2021/09/06 00:27:39;;;;;;;;;;;;;;;;;;5033919;28;20415;-81
2021/09/06 00:30:23;;;;;;;;;;;;;;;;;;5026553;28;19989;-81
2021/09/06 00:33:07;;;;;;;;;;;;;;;;;;5040189;28;19925;-81
2021/09/06 00:35:51;;;;;;;;;;;;;;;;;;5019814;28;20246;-81
2021/09/06 00:38:36;;;;;;;;;;;;;;;;;;5032658;28;19920;-81
2021/09/06 00:41:20;;;;;;;;;;;;;;;;;;5041304;28;19992;-81
2021/09/06 00:44:04;;;;;;;;;;;;;;;;;;5037562;28;19920;-80
2021/09/06 00:46:49;;;;;;;;;;;;;;;;;;5037881;28;20277;-80
2021/09/06 00:49:33;;;;;;;;;;;;;;;;;;5034819;28;19971;-80
2021/09/06 00:52:18;;;;;;;;;;;;;;;;;;5032094;28;19924;-81
2021/09/06 00:55:02;;;;;;;;;;;;;;;;;;5036468;28;19920;-80
2021/09/06 00:57:48;;;;;;;;;;;;;;;;;;5035968;28;20400;-81
2021/09/06 01:00:33;;;;;;;;;;;;;;;;;;5032331;28;19921;-80
2021/09/06 01:03:18;;;;;;;;;;;;;;;;;;5040425;28;19924;-81
2021/09/06 01:06:03;;;;;;;;;;;;;;;;;;5036870;28;20397;-80
2021/09/06 01:09:14;;;;;;;;;;;;;;;;;;5047381;28;19924;-81
2021/09/06 01:12:16;;;;;;;;;;;;;;;;;;5035179;28;19921;-80
2021/09/06 01:15:04;;;;;;;;;;;;;;;;;;5036942;28;19935;-80
2021/09/06 01:17:52;;;;;;;;;;;;;;;;;;5053526;28;19920;-82
2021/09/06 01:20:36;;;;;;;;;;;;;;;;;;5039563;28;19920;-82
2021/09/06 01:23:20;;;;;;;;;;;;;;;;;;5038955;28;20001;-82
2021/09/06 01:26:23;;;;;;;;;;;;;;;;;;5039243;28;19928;-82
2021/09/06 01:29:07;;;;;;;;;;;;;;;;;;5022290;28;19928;-81
2021/09/06 01:31:51;;;;;;;;;;;;;;;;;;5031584;28;19920;-81
2021/09/06 01:34:36;;;;;;;;;;;;;;;;;;5044032;28;19921;-81
2021/09/06 01:37:21;;;;;;;;;;;;;;;;;;5041951;28;19920;-79
2021/09/06 01:40:10;;;;;;;;;;;;;;;;;;5038885;28;19920;-80
2021/09/06 01:42:54;;;;;;;;;;;;;;;;;;5042696;28;19920;-81
2021/09/06 01:45:39;;;;;;;;;;;;;;;;;;5040733;28;19920;-79
2021/09/06 01:48:24;;;;;;;;;;;;;;;;;;5024024;28;20304;-80
2021/09/06 01:51:08;;;;;;;;;;;;;;;;;;5057483;28;19924;-80
2021/09/06 01:53:52;;;;;;;;;;;;;;;;;;5054422;28;19924;-80
2021/09/06 01:56:36;;;;;;;;;;;;;;;;;;5038929;28;19936;-81
2021/09/06 01:59:21;;;;;;;;;;;;;;;;;;5041256;28;19928;-81
2021/09/06 02:02:05;;;;;;;;;;;;;;;;;;5052910;28;19920;-82
2021/09/06 02:04:56;;;;;;;;;;;;;;;;;;5040478;28;19920;-82
2021/09/06 02:07:41;;;;;;;;;;;;;;;;;;5049981;28;19924;-80
2021/09/06 02:10:25;;;;;;;;;;;;;;;;;;5039268;28;19924;-80
2021/09/06 02:13:12;;;;;;;;;;;;;;;;;;5056627;28;20308;-83
2021/09/06 02:15:57;;;;;;;;;;;;;;;;;;5042292;28;19920;-83
2021/09/06 02:18:44;;;;;;;;;;;;;;;;;;5037920;28;19920;-83
2021/09/06 02:21:28;;;;;;;;;;;;;;;;;;5038790;28;19920;-83
2021/09/06 02:24:17;;;;;;;;;;;;;;;;;;5042040;28;19936;-84
2021/09/06 02:27:01;;;;;;;;;;;;;;;;;;5040303;28;19928;-83
2021/09/06 02:29:46;;;;;;;;;;;;;;;;;;5052577;28;19920;-81
2021/09/06 02:32:35;;;;;;;;;;;;;;;;;;5058542;28;19920;-83
2021/09/06 02:35:25;;;;;;;;;;;;;;;;;;5043525;28;19920;-80
2021/09/06 02:38:10;;;;;;;;;;;;;;;;;;5039252;28;19920;-80
2021/09/06 02:40:55;;;;;;;;;;;;;;;;;;5058045;28;19920;-81
2021/09/06 02:43:39;;;;;;;;;;;;;;;;;;5054742;28;19936;-81
2021/09/06 02:46:23;;;;;;;;;;;;;;;;;;5037780;28;20309;-81
2021/09/06 02:49:07;;;;;;;;;;;;;;;;;;5037653;28;19932;-81
2021/09/06 02:51:51;;;;;;;;;;;;;;;;;;5040464;28;19944;-80
2021/09/06 02:54:36;;;;;;;;;;;;;;;;;;5037412;28;19920;-80
2021/09/06 02:57:20;;;;;;;;;;;;;;;;;;5037652;28;19920;-80
2021/09/06 03:00:06;;;;;;;;;;;;;;;;;;5037982;28;19976;-79
2021/09/06 03:02:51;;;;;;;;;;;;;;;;;;5028335;28;19924;-81
2021/09/06 03:05:35;;;;;;;;;;;;;;;;;;5031072;28;19921;-81
2021/09/06 03:08:19;;;;;;;;;;;;;;;;;;5034454;28;20392;-82
2021/09/06 03:11:05;;;;;;;;;;;;;;;;;;5026266;28;19924;-81
2021/09/06 03:13:52;;;;;;;;;;;;;;;;;;5034524;28;19919;-80
2021/09/06 03:16:36;;;;;;;;;;;;;;;;;;5042125;28;19921;-81
2021/09/06 03:19:21;;;;;;;;;;;;;;;;;;5033503;28;19935;-82
2021/09/06 03:22:11;;;;;;;;;;;;;;;;;;5037339;28;19924;-82
2021/09/06 03:24:55;;;;;;;;;;;;;;;;;;5038329;28;19999;-82
2021/09/06 03:27:41;;;;;;;;;;;;;;;;;;5039831;28;19924;-81
2021/09/06 03:30:25;;;;;;;;;;;;;;;;;;5037706;28;20404;-81
2021/09/06 03:33:13;;;;;;;;;;;;;;;;;;5046911;28;19920;-81
2021/09/06 03:36:00;;;;;;;;;;;;;;;;;;5050873;28;19921;-82
2021/09/06 03:38:44;;;;;;;;;;;;;;;;;;5051939;28;20412;-83
2021/09/06 03:41:30;;;;;;;;;;;;;;;;;;5042742;28;19981;-82
2021/09/06 03:44:14;;;;;;;;;;;;;;;;;;5037472;28;19928;-81
2021/09/06 03:47:02;;;;;;;;;;;;;;;;;;5032736;28;19920;-82
2021/09/06 03:49:46;;;;;;;;;;;;;;;;;;5036353;28;19920;-82
2021/09/06 03:52:30;;;;;;;;;;;;;;;;;;5038537;28;20328;-82
2021/09/06 03:55:14;;;;;;;;;;;;;;;;;;5024340;28;20416;-81
2021/09/06 03:57:59;;;;;;;;;;;;;;;;;;5034136;28;19921;-81
2021/09/06 04:00:43;;;;;;;;;;;;;;;;;;5040062;28;19940;-82
2021/09/06 04:03:30;;;;;;;;;;;;;;;;;;5040477;28;19921;-82
2021/09/06 04:06:16;;;;;;;;;;;;;;;;;;5022326;28;19921;-81
2021/09/06 04:09:01;;;;;;;;;;;;;;;;;;5051992;28;19949;-81
2021/09/06 04:11:45;;;;;;;;;;;;;;;;;;5035790;28;19928;-80
2021/09/06 04:14:32;;;;;;;;;;;;;;;;;;5036090;28;19928;-81
2021/09/06 04:17:17;;;;;;;;;;;;;;;;;;5039177;28;19920;-81
2021/09/06 04:20:03;;;;;;;;;;;;;;;;;;5050742;28;19984;-81
2021/09/06 04:22:48;;;;;;;;;;;;;;;;;;5035302;28;20305;-81
2021/09/06 04:25:35;;;;;;;;;;;;;;;;;;5039502;28;20023;-81
2021/09/06 04:28:20;;;;;;;;;;;;;;;;;;5050010;28;19924;-83
2021/09/06 04:31:05;;;;;;;;;;;;;;;;;;5028363;28;19921;-82
2021/09/06 04:33:52;;;;;;;;;;;;;;;;;;5039571;28;19937;-82
2021/09/06 04:36:36;;;;;;;;;;;;;;;;;;5025756;28;19920;-83
2021/09/06 04:39:20;;;;;;;;;;;;;;;;;;5038692;28;19920;-81
2021/09/06 04:42:07;;;;;;;;;;;;;;;;;;5046040;28;19936;-81
2021/09/06 04:44:52;;;;;;;;;;;;;;;;;;5028228;28;19920;-82
2021/09/06 04:47:37;;;;;;;;;;;;;;;;;;5031782;28;19940;-81
2021/09/06 04:50:21;;;;;;;;;;;;;;;;;;5035850;28;19921;-80
2021/09/06 04:53:05;;;;;;;;;;;;;;;;;;5052223;28;19936;-81
2021/09/06 04:55:50;;;;;;;;;;;;;;;;;;5039924;28;19920;-81
2021/09/06 04:58:35;;;;;;;;;;;;;;;;;;5044399;28;19935;-81
2021/09/06 05:01:19;;;;;;;;;;;;;;;;;;5038648;28;19920;-81
2021/09/06 05:04:03;;;;;;;;;;;;;;;;;;5040831;28;20460;-81
2021/09/06 05:06:47;;;;;;;;;;;;;;;;;;5041775;28;19924;-80
2021/09/06 05:09:35;;;;;;;;;;;;;;;;;;5049901;28;20401;-80
2021/09/06 05:12:19;;;;;;;;;;;;;;;;;;5047886;28;19924;-80
2021/09/06 05:15:03;;;;;;;;;;;;;;;;;;5033735;28;19920;-80
2021/09/06 05:17:49;;;;;;;;;;;;;;;;;;5035283;28;20436;-79
2021/09/06 05:20:33;;;;;;;;;;;;;;;;;;5052483;28;19932;-80
2021/09/06 05:23:20;;;;;;;;;;;;;;;;;;5037022;28;20404;-80
2021/09/06 05:26:04;;;;;;;;;;;;;;;;;;5050641;28;19920;-80
2021/09/06 05:28:48;;;;;;;;;;;;;;;;;;5045468;28;19924;-80
2021/09/06 05:31:33;;;;;;;;;;;;;;;;;;5033944;28;19920;-81
2021/09/06 05:34:17;;;;;;;;;;;;;;;;;;5043351;28;19925;-80
2021/09/06 05:37:02;;;;;;;;;;;;;;;;;;5036952;28;19920;-81
2021/09/06 05:39:48;;;;;;;;;;;;;;;;;;5032007;28;19925;-81
2021/09/06 05:42:32;;;;;;;;;;;;;;;;;;5039962;28;19920;-81
2021/09/06 05:45:16;;;;;;;;;;;;;;;;;;5056333;28;19920;-81
2021/09/06 05:48:01;;;;;;;;;;;;;;;;;;5040430;28;19925;-81
2021/09/06 05:50:45;;;;;;;;;;;;;;;;;;5050643;28;20297;-81
2021/09/06 05:53:48;;;;;;;;;;;;;;;;;;5030086;28;19924;-80
2021/09/06 05:56:32;;;;;;;;;;;;;;;;;;5039565;28;20007;-80
2021/09/06 05:59:19;;;;;;;;;;;;;;;;;;5023387;28;20441;-81
2021/09/06 06:02:03;;;;;;;;;;;;;;;;;;5025117;28;20301;-81
2021/09/06 06:04:47;;;;;;;;;;;;;;;;;;5046317;28;19920;-81
2021/09/06 06:07:31;;;;;;;;;;;;;;;;;;5042761;28;19920;-81
2021/09/06 06:10:16;;;;;;;;;;;;;;;;;;5040018;28;19924;-80
2021/09/06 06:13:00;;;;;;;;;;;;;;;;;;5037546;28;20301;-80
2021/09/06 06:15:44;;;;;;;;;;;;;;;;;;5043506;28;20409;-81
2021/09/06 06:18:28;;;;;;;;;;;;;;;;;;5032194;28;19924;-80
2021/09/06 06:21:13;;;;;;;;;;;;;;;;;;5028636;28;20401;-80
2021/09/06 06:24:23;;;;;;;;;;;;;;;;;;5019722;28;19920;-81
2021/09/06 06:27:14;;;;;;;;;;;;;;;;;;5036355;28;19936;-81
2021/09/06 06:29:59;;;;;;;;;;;;;;;;;;5023625;28;19933;-80
2021/09/06 06:32:43;;;;;;;;;;;;;;;;;;5043265;28;19928;-80
2021/09/06 06:35:38;;;;;;;;;;;;;;;;;;5043817;28;19924;-80
2021/09/06 06:38:23;;;;;;;;;;;;;;;;;;5030979;28;19988;-81
2021/09/06 06:41:12;;;;;;;;;;;;;;;;;;5042364;28;19920;-81
2021/09/06 06:44:11;;;;;;;;;;;;;;;;;;5032490;28;19921;-81
2021/09/06 06:46:55;;;;;;;;;;;;;;;;;;5030912;28;20400;-82
2021/09/06 06:49:42;;;;;;;;;;;;;;;;;;5025261;28;19936;-80
2021/09/06 06:52:27;;;;;;;;;;;;;;;;;;5040925;28;20404;-81
2021/09/06 06:55:11;;;;;;;;;;;;;;;;;;5039960;28;20305;-81
2021/09/06 06:57:56;;;;;;;;;;;;;;;;;;5045529;28;19920;-82
2021/09/06 07:00:41;;;;;;;;;;;;;;;;;;5043414;28;19937;-81
2021/09/06 07:03:25;;;;;;;;;;;;;;;;;;5040783;28;19921;-83
2021/09/06 07:06:09;;;;;;;;;;;;;;;;;;5045889;28;19920;-82
2021/09/06 07:08:56;;;;;;;;;;;;;;;;;;5043327;28;19940;-83
2021/09/06 07:11:40;;;;;;;;;;;;;;;;;;5037278;28;19921;-83
2021/09/06 07:14:24;;;;;;;;;;;;;;;;;;5039935;28;19920;-83
2021/09/06 07:17:09;;;;;;;;;;;;;;;;;;5043810;28;19928;-83
2021/09/06 07:19:53;;;;;;;;;;;;;;;;;;5041333;28;19920;-83
2021/09/06 07:22:39;;;;;;;;;;;;;;;;;;5043107;28;19924;-82
2021/09/06 07:25:24;;;;;;;;;;;;;;;;;;5045220;28;19924;-83
2021/09/06 07:28:08;;;;;;;;;;;;;;;;;;5043247;28;19929;-83
2021/09/06 07:30:52;;;;;;;;;;;;;;;;;;5034121;28;19925;-83
2021/09/06 07:33:39;;;;;;;;;;;;;;;;;;5043624;28;19929;-83
2021/09/06 07:36:23;;;;;;;;;;;;;;;;;;5039629;28;19936;-82
2021/09/06 07:39:08;;;;;;;;;;;;;;;;;;5037059;28;19924;-83
2021/09/06 07:41:53;;;;;;;;;;;;;;;;;;5039796;28;19928;-82
2021/09/06 07:44:38;;;;;;;;;;;;;;;;;;5040813;28;19928;-83
2021/09/06 07:47:22;;;;;;;;;;;;;;;;;;5034992;28;19920;-83
2021/09/06 07:50:08;;;;;;;;;;;;;;;;;;5037846;28;19928;-82
2021/09/06 07:52:53;;;;;;;;;;;;;;;;;;5060368;28;19920;-82
2021/09/06 07:55:37;;;;;;;;;;;;;;;;;;5038856;28;19948;-81
2021/09/06 07:58:21;;;;;;;;;;;;;;;;;;5045164;28;19921;-81
2021/09/06 08:01:05;;;;;;;;;;;;;;;;;;5043696;28;19920;-83
2021/09/06 08:03:50;;;;;;;;;;;;;;;;;;5023097;28;19920;-84
2021/09/06 08:06:34;;;;;;;;;;;;;;;;;;5029910;28;20408;-82
2021/09/06 08:09:18;;;;;;;;;;;;;;;;;;5019391;28;19928;-83
2021/09/06 08:12:02;;;;;;;;;;;;;;;;;;5033632;28;19929;-82
2021/09/06 08:14:46;;;;;;;;;;;;;;;;;;5023168;28;19921;-83
2021/09/06 08:17:31;;;;;;;;;;;;;;;;;;5054586;28;19924;-87
2021/09/06 08:20:15;;;;;;;;;;;;;;;;;;5038954;28;19982;-84
2021/09/06 08:23:00;;;;;;;;;;;;;;;;;;5041527;28;19924;-83
2021/09/06 08:25:44;;;;;;;;;;;;;;;;;;5047185;28;19920;-84
2021/09/06 08:28:28;;;;;;;;;;;;;;;;;;5039290;28;19948;-85
2021/09/06 08:31:13;;;;;;;;;;;;;;;;;;5044851;28;19920;-85
2021/09/06 08:33:58;;;;;;;;;;;;;;;;;;5051442;28;19924;-81
2021/09/06 08:36:43;;;;;;;;;;;;;;;;;;5059843;28;19924;-85
2021/09/06 08:39:27;;;;;;;;;;;;;;;;;;5040322;28;19925;-83
2021/09/06 08:42:11;;;;;;;;;;;;;;;;;;5041976;28;20569;-88
2021/09/06 08:44:56;;;;;;;;;;;;;;;;;;5042411;28;19920;-80
2021/09/06 08:47:41;;;;;;;;;;;;;;;;;;5038593;28;19921;-81
2021/09/06 08:50:25;;;;;;;;;;;;;;;;;;5033796;28;19921;-81
2021/09/06 08:53:09;;;;;;;;;;;;;;;;;;5022981;28;19921;-81
2021/09/06 08:55:56;;;;;;;;;;;;;;;;;;5022115;28;20400;-80
2021/09/06 08:58:40;;;;;;;;;;;;;;;;;;5025048;28;19921;-80
2021/09/06 09:01:25;;;;;;;;;;;;;;;;;;5024164;28;19921;-82
2021/09/06 09:04:27;;;;;;;;;;;;;;;;;;5020715;28;19920;-81
2021/09/06 09:07:44;;;;;;;;;;;;;;;;;;5030636;28;19936;-81
2021/09/06 09:10:46;;;;;;;;;;;;;;;;;;5039411;28;19920;-80
2021/09/06 09:13:57;;;;;;;;;;;;;;;;;;5040815;28;19920;-80
2021/09/06 09:17:03;;;;;;;;;;;;;;;;;;5040181;28;19936;-80
2021/09/06 09:20:06;;;;;;;;;;;;;;;;;;5050664;28;19928;-80
2021/09/06 09:23:03;;;;;;;;;;;;;;;;;;5039598;28;19928;-80
2021/09/06 09:26:02;;;;;;;;;;;;;;;;;;5025180;28;19920;-79
2021/09/06 09:29:10;;;;;;;;;;;;;;;;;;5036027;28;20015;-81
2021/09/06 09:32:09;;;;;;;;;;;;;;;;;;5039257;28;19924;-81
2021/09/06 09:35:18;;;;;;;;;;;;;;;;;;5031247;28;19920;-80
2021/09/06 09:38:02;;;;;;;;;;;;;;;;;;5040285;28;19920;-79
2021/09/06 09:40:47;;;;;;;;;;;;;;;;;;5041192;28;19924;-80
2021/09/06 09:43:31;;;;;;;;;;;;;;;;;;5041902;28;20324;-81
2021/09/06 09:46:17;;;;;;;;;;;;;;;;;;5038889;28;19920;-80
2021/09/06 09:49:10;;;;;;;;;;;;;;;;;;5042670;28;19924;-81
2021/09/06 09:51:54;;;;;;;;;;;;;;;;;;5037201;28;19928;-79
2021/09/06 09:54:38;;;;;;;;;;;;;;;;;;5039441;28;20440;-79
2021/09/06 09:57:26;;;;;;;;;;;;;;;;;;5038389;28;19920;-80
2021/09/06 10:00:14;;;;;;;;;;;;;;;;;;5039137;28;19936;-80
2021/09/06 10:02:58;;;;;;;;;;;;;;;;;;5027562;28;19920;-80
2021/09/06 10:05:43;;;;;;;;;;;;;;;;;;5024473;28;19921;-80
2021/09/06 10:08:28;;;;;;;;;;;;;;;;;;5039840;28;19928;-80
2021/09/06 10:11:13;;;;;;;;;;;;;;;;;;5039153;28;19921;-80
2021/09/06 10:13:59;;;;;;;;;;;;;;;;;;5038237;28;19963;-79
2021/09/06 10:16:45;;;;;;;;;;;;;;;;;;5039181;28;19920;-80
2021/09/06 10:19:30;;;;;;;;;;;;;;;;;;5039003;28;19920;-79
2021/09/06 10:22:15;;;;;;;;;;;;;;;;;;5042548;28;19920;-79
2021/09/06 10:24:59;;;;;;;;;;;;;;;;;;5039023;28;20313;-79
2021/09/06 10:27:43;;;;;;;;;;;;;;;;;;5038089;28;19921;-79
2021/09/06 10:30:29;;;;;;;;;;;;;;;;;;5036636;28;19925;-80
2021/09/06 10:33:15;;;;;;;;;;;;;;;;;;5027688;28;19921;-79
2021/09/06 10:35:59;;;;;;;;;;;;;;;;;;5019012;28;19933;-79
2021/09/06 10:38:44;;;;;;;;;;;;;;;;;;5038210;28;19920;-80
2021/09/06 10:41:30;;;;;;;;;;;;;;;;;;5030663;28;19920;-80
2021/09/06 10:44:15;;;;;;;;;;;;;;;;;;5039603;28;19989;-79
2021/09/06 10:47:01;;;;;;;;;;;;;;;;;;5036644;28;19920;-79
2021/09/06 10:49:45;;;;;;;;;;;;;;;;;;5035405;28;19924;-79
2021/09/06 10:52:30;;;;;;;;;;;;;;;;;;5046651;28;19920;-80
2021/09/06 10:55:14;;;;;;;;;;;;;;;;;;5033224;28;19920;-79
2021/09/06 10:58:00;;;;;;;;;;;;;;;;;;5037759;28;19943;-79
2021/09/06 11:00:44;;;;;;;;;;;;;;;;;;5034389;28;19921;-80
2021/09/06 11:03:30;;;;;;;;;;;;;;;;;;5040781;28;19928;-80
2021/09/06 11:06:15;;;;;;;;;;;;;;;;;;5028505;28;19921;-78
2021/09/06 11:09:00;;;;;;;;;;;;;;;;;;5036525;28;19932;-80
2021/09/06 11:11:45;;;;;;;;;;;;;;;;;;5035317;28;19920;-78
2021/09/06 11:14:29;;;;;;;;;;;;;;;;;;5034145;28;19920;-79
2021/09/06 11:17:15;;;;;;;;;;;;;;;;;;5035573;28;20612;-79
2021/09/06 11:20:01;;;;;;;;;;;;;;;;;;5035085;28;19925;-79
2021/09/06 11:22:46;;;;;;;;;;;;;;;;;;5039774;28;19920;-79
2021/09/06 11:25:30;;;;;;;;;;;;;;;;;;5034215;28;19920;-80
2021/09/06 11:28:15;;;;;;;;;;;;;;;;;;5035201;28;19925;-79
2021/09/06 11:30:59;;;;;;;;;;;;;;;;;;5038013;28;19924;-79
2021/09/06 11:33:43;;;;;;;;;;;;;;;;;;5037770;28;19920;-79
2021/09/06 11:36:27;;;;;;;;;;;;;;;;;;5036257;28;19944;-80
2021/09/06 11:39:11;;;;;;;;;;;;;;;;;;5038313;28;19920;-79
2021/09/06 11:41:57;;;;;;;;;;;;;;;;;;5035358;28;19932;-80
2021/09/06 11:44:41;;;;;;;;;;;;;;;;;;5036573;28;19920;-80
2021/09/06 11:47:25;;;;;;;;;;;;;;;;;;5041123;28;19920;-80
2021/09/06 11:50:09;;;;;;;;;;;;;;;;;;5034782;28;19928;-79
2021/09/06 11:52:53;;;;;;;;;;;;;;;;;;5032557;28;19936;-82
2021/09/06 11:55:38;;;;;;;;;;;;;;;;;;5036806;28;19920;-79
2021/09/06 11:58:22;;;;;;;;;;;;;;;;;;5035858;28;20554;-80
2021/09/06 12:01:09;;;;;;;;;;;;;;;;;;5036991;28;19924;-79
2021/09/06 12:03:53;;;;;;;;;;;;;;;;;;5031129;28;19920;-79
2021/09/06 12:06:38;;;;;;;;;;;;;;;;;;5039678;28;19920;-80
2021/09/06 12:09:22;;;;;;;;;;;;;;;;;;5036221;28;19948;-82
2021/09/06 12:12:07;;;;;;;;;;;;;;;;;;5034834;28;19924;-81
2021/09/06 12:14:51;;;;;;;;;;;;;;;;;;5020724;28;19920;-81
2021/09/06 12:17:35;;;;;;;;;;;;;;;;;;5018193;28;19921;-82
2021/09/06 12:20:20;;;;;;;;;;;;;;;;;;5015996;28;19922;-80
2021/09/06 12:23:04;;;;;;;;;;;;;;;;;;5030294;28;19928;-82
2021/09/06 12:25:48;;;;;;;;;;;;;;;;;;5039040;28;19921;-81
2021/09/06 12:28:32;;;;;;;;;;;;;;;;;;5034666;28;19924;-80
2021/09/06 12:31:16;;;;;;;;;;;;;;;;;;5034881;28;19921;-80
2021/09/06 12:34:00;;;;;;;;;;;;;;;;;;5033954;28;19920;-82
2021/09/06 12:36:45;;;;;;;;;;;;;;;;;;5036794;28;19920;-81
2021/09/06 12:39:29;;;;;;;;;;;;;;;;;;5036662;28;19925;-82
2021/09/06 12:42:13;;;;;;;;;;;;;;;;;;5034790;28;19921;-81
2021/09/06 12:44:58;;;;;;;;;;;;;;;;;;5037341;28;19936;-82
2021/09/06 12:47:42;;;;;;;;;;;;;;;;;;5034522;28;19924;-81
2021/09/06 12:50:26;;;;;;;;;;;;;;;;;;5035032;28;19925;-82
2021/09/06 12:53:10;;;;;;;;;;;;;;;;;;5017087;28;19921;-81
2021/09/06 12:55:54;;;;;;;;;;;;;;;;;;5035053;28;20573;-80
2021/09/06 12:58:39;;;;;;;;;;;;;;;;;;5049745;28;19936;-81
2021/09/06 13:01:23;;;;;;;;;;;;;;;;;;5034934;28;20396;-80
2021/09/06 13:04:07;;;;;;;;;;;;;;;;;;5036148;28;19921;-80
2021/09/06 13:06:53;;;;;;;;;;;;;;;;;;5033708;28;19921;-80
2021/09/06 13:09:37;;;;;;;;;;;;;;;;;;5030384;28;20298;-80
2021/09/06 13:12:21;;;;;;;;;;;;;;;;;;5049094;28;19920;-79
2021/09/06 13:15:07;;;;;;;;;;;;;;;;;;5037794;28;20301;-81
2021/09/06 13:17:51;;;;;;;;;;;;;;;;;;5037644;28;19920;-81
2021/09/06 13:20:35;;;;;;;;;;;;;;;;;;5037532;28;19920;-80
2021/09/06 13:23:20;;;;;;;;;;;;;;;;;;5036451;28;20018;-80
2021/09/06 13:26:11;;;;;;;;;;;;;;;;;;5041747;28;19920;-80
2021/09/06 13:28:55;;;;;;;;;;;;;;;;;;5040135;28;19925;-80
2021/09/06 13:31:39;;;;;;;;;;;;;;;;;;5036877;28;19924;-80
2021/09/06 13:34:23;;;;;;;;;;;;;;;;;;5037571;28;19920;-79
2021/09/06 13:37:08;;;;;;;;;;;;;;;;;;5038482;28;19920;-79
2021/09/06 13:39:52;;;;;;;;;;;;;;;;;;5037623;28;20404;-79
2021/09/06 13:42:36;;;;;;;;;;;;;;;;;;5035338;28;19920;-79
2021/09/06 13:45:20;;;;;;;;;;;;;;;;;;5035781;28;19920;-80
2021/09/06 13:48:05;;;;;;;;;;;;;;;;;;5038166;28;19920;-79
2021/09/06 13:50:49;;;;;;;;;;;;;;;;;;5038781;28;19924;-79
2021/09/06 13:53:33;;;;;;;;;;;;;;;;;;5036487;28;19920;-79
2021/09/06 13:56:17;;;;;;;;;;;;;;;;;;5036098;28;19920;-79
2021/09/06 13:59:01;;;;;;;;;;;;;;;;;;5041658;28;19920;-79
2021/09/06 14:01:46;;;;;;;;;;;;;;;;;;5037002;28;19921;-78
2021/09/06 14:04:30;;;;;;;;;;;;;;;;;;5038306;28;19929;-80
2021/09/06 14:07:14;;;;;;;;;;;;;;;;;;5036092;28;19920;-79
2021/09/06 14:09:58;;;;;;;;;;;;;;;;;;5038178;28;19924;-79
2021/09/06 14:12:42;;;;;;;;;;;;;;;;;;5038256;28;20293;-79
2021/09/06 14:15:27;;;;;;;;;;;;;;;;;;5037162;28;20408;-79
2021/09/06 14:18:11;;;;;;;;;;;;;;;;;;5039750;28;19920;-82
2021/09/06 14:20:55;;;;;;;;;;;;;;;;;;5036694;28;19920;-81
2021/09/06 14:23:40;;;;;;;;;;;;;;;;;;5041247;28;20309;-81
2021/09/06 14:26:25;;;;;;;;;;;;;;;;;;5036648;28;19920;-79
2021/09/06 14:29:10;;;;;;;;;;;;;;;;;;5036562;28;19924;-81
2021/09/06 14:31:56;;;;;;;;;;;;;;;;;;5030907;28;19921;-79
2021/09/06 14:34:43;;;;;;;;;;;;;;;;;;5035171;28;20400;-81
2021/09/06 14:37:27;;;;;;;;;;;;;;;;;;5038130;28;19921;-81
2021/09/06 14:40:11;;;;;;;;;;;;;;;;;;5034469;28;19920;-80
2021/09/06 14:42:56;;;;;;;;;;;;;;;;;;5034432;28;19936;-81
2021/09/06 14:45:40;;;;;;;;;;;;;;;;;;5035046;28;20297;-80
2021/09/06 14:48:24;;;;;;;;;;;;;;;;;;5044969;28;19944;-84
2021/09/06 14:51:08;;;;;;;;;;;;;;;;;;5039123;28;19937;-82
2021/09/06 14:53:52;;;;;;;;;;;;;;;;;;5039006;28;20416;-82
2021/09/06 14:56:37;;;;;;;;;;;;;;;;;;5037548;28;19920;-82
2021/09/06 14:59:21;;;;;;;;;;;;;;;;;;5037490;28;19920;-82
2021/09/06 15:02:06;;;;;;;;;;;;;;;;;;5037896;28;19929;-82
2021/09/06 15:04:50;;;;;;;;;;;;;;;;;;5037415;28;20289;-83
2021/09/06 15:07:35;;;;;;;;;;;;;;;;;;5041262;28;19936;-83
2021/09/06 15:10:19;;;;;;;;;;;;;;;;;;5037727;28;20412;-83
2021/09/06 15:13:03;;;;;;;;;;;;;;;;;;5042957;28;19928;-82
2021/09/06 15:15:47;;;;;;;;;;;;;;;;;;5038483;28;19921;-82
2021/09/06 15:18:33;;;;;;;;;;;;;;;;;;5035012;28;20432;-82
2021/09/06 15:21:17;;;;;;;;;;;;;;;;;;5039075;28;19921;-83
2021/09/06 15:24:02;;;;;;;;;;;;;;;;;;5033648;28;19920;-82
2021/09/06 15:26:46;;;;;;;;;;;;;;;;;;5037662;28;19921;-83
2021/09/06 15:29:30;;;;;;;;;;;;;;;;;;5034516;28;19928;-83
2021/09/06 15:32:14;;;;;;;;;;;;;;;;;;5038320;28;19920;-82
2021/09/06 15:34:59;;;;;;;;;;;;;;;;;;5038448;28;19921;-82
2021/09/06 15:37:43;;;;;;;;;;;;;;;;;;5038669;28;19929;-82
2021/09/06 15:40:29;;;;;;;;;;;;;;;;;;5036378;28;19936;-82
2021/09/06 15:43:13;;;;;;;;;;;;;;;;;;5040607;28;19920;-83
2021/09/06 15:45:57;;;;;;;;;;;;;;;;;;5052563;28;20026;-83
2021/09/06 15:48:42;;;;;;;;;;;;;;;;;;5034837;28;19932;-83
2021/09/06 15:51:26;;;;;;;;;;;;;;;;;;5035080;28;19920;-82
2021/09/06 15:54:10;;;;;;;;;;;;;;;;;;5035451;28;19920;-83
2021/09/06 15:56:55;;;;;;;;;;;;;;;;;;5034624;28;19920;-82
2021/09/06 15:59:39;;;;;;;;;;;;;;;;;;5035083;28;19920;-82
2021/09/06 16:02:24;;;;;;;;;;;;;;;;;;5037943;28;19928;-82
2021/09/06 16:05:09;;;;;;;;;;;;;;;;;;5038073;28;20405;-83
2021/09/06 16:07:53;;;;;;;;;;;;;;;;;;5035538;28;19924;-82
2021/09/06 16:10:37;;;;;;;;;;;;;;;;;;5036762;28;19925;-83
2021/09/06 16:13:22;;;;;;;;;;;;;;;;;;5036935;28;19925;-82
2021/09/06 16:16:06;;;;;;;;;;;;;;;;;;5037491;28;19921;-83
2021/09/06 16:18:50;;;;;;;;;;;;;;;;;;5039431;28;19925;-83
2021/09/06 16:21:34;;;;;;;;;;;;;;;;;;5031152;28;20377;-83
2021/09/06 16:24:19;;;;;;;;;;;;;;;;;;5037383;28;19925;-83
2021/09/06 16:27:05;;;;;;;;;;;;;;;;;;5041902;28;19980;-83
2021/09/06 16:29:49;;;;;;;;;;;;;;;;;;5035370;28;19924;-83
2021/09/06 16:32:33;;;;;;;;;;;;;;;;;;5037325;28;19936;-83
2021/09/06 16:35:17;;;;;;;;;;;;;;;;;;5040894;28;19924;-83
2021/09/06 16:38:01;;;;;;;;;;;;;;;;;;5036922;28;19924;-83
2021/09/06 16:40:46;;;;;;;;;;;;;;;;;;5035822;28;20507;-83
2021/09/06 16:43:30;;;;;;;;;;;;;;;;;;5041813;28;19924;-83
2021/09/06 16:46:14;;;;;;;;;;;;;;;;;;5036739;28;20325;-83
2021/09/06 16:48:58;;;;;;;;;;;;;;;;;;5037569;28;19940;-83
2021/09/06 16:51:42;;;;;;;;;;;;;;;;;;5039588;28;19924;-83
2021/09/06 16:54:26;;;;;;;;;;;;;;;;;;5044064;28;19921;-83
2021/09/06 16:57:11;;;;;;;;;;;;;;;;;;5041669;28;20285;-83
2021/09/06 16:59:55;;;;;;;;;;;;;;;;;;5042654;28;19928;-84
2021/09/06 17:02:39;;;;;;;;;;;;;;;;;;5046653;28;19920;-84
2021/09/06 17:05:25;;;;;;;;;;;;;;;;;;5042951;28;19929;-83
2021/09/06 17:08:09;;;;;;;;;;;;;;;;;;5041672;28;19920;-83
2021/09/06 17:10:53;;;;;;;;;;;;;;;;;;5039429;28;19924;-83
2021/09/06 17:13:37;;;;;;;;;;;;;;;;;;5034588;28;20301;-84
2021/09/06 17:16:21;;;;;;;;;;;;;;;;;;5040382;28;19920;-83
2021/09/06 17:19:06;;;;;;;;;;;;;;;;;;5038085;28;19920;-82
2021/09/06 17:21:53;;;;;;;;;;;;;;;;;;5049064;28;19924;-82
2021/09/06 17:24:37;;;;;;;;;;;;;;;;;;5036553;28;19928;-81
2021/09/06 17:27:21;;;;;;;;;;;;;;;;;;5053505;28;19940;-81
2021/09/06 17:30:05;;;;;;;;;;;;;;;;;;5037625;28;19924;-81
2021/09/06 17:32:49;;;;;;;;;;;;;;;;;;5040069;28;19920;-82
2021/09/06 17:35:33;;;;;;;;;;;;;;;;;;5035560;28;19928;-81
2021/09/06 17:38:17;;;;;;;;;;;;;;;;;;5042753;28;19920;-82
2021/09/06 17:41:02;;;;;;;;;;;;;;;;;;5038825;28;19920;-81
2021/09/06 17:43:46;;;;;;;;;;;;;;;;;;5039493;28;19920;-82
2021/09/06 17:46:30;;;;;;;;;;;;;;;;;;5037357;28;19924;-81
2021/09/06 17:49:14;;;;;;;;;;;;;;;;;;5038106;28;19925;-82
2021/09/06 17:51:59;;;;;;;;;;;;;;;;;;5043835;28;19921;-81
2021/09/06 17:54:46;;;;;;;;;;;;;;;;;;5042756;28;19928;-81
2021/09/06 17:57:30;;;;;;;;;;;;;;;;;;5041102;28;20436;-82
2021/09/06 18:00:14;;;;;;;;;;;;;;;;;;5038683;28;20443;-82
2021/09/06 18:02:58;;;;;;;;;;;;;;;;;;5042840;28;19920;-82
2021/09/06 18:05:43;;;;;;;;;;;;;;;;;;5039865;28;19924;-82
2021/09/06 18:08:28;;;;;;;;;;;;;;;;;;5040266;28;19925;-82
2021/09/06 18:11:12;;;;;;;;;;;;;;;;;;5040565;28;19925;-81
2021/09/06 18:13:57;;;;;;;;;;;;;;;;;;5036901;28;19928;-81
2021/09/06 18:16:41;;;;;;;;;;;;;;;;;;5035924;28;19928;-82
2021/09/06 18:19:28;;;;;;;;;;;;;;;;;;5038736;28;20427;-82
2021/09/06 18:22:12;;;;;;;;;;;;;;;;;;5039371;28;19920;-82
2021/09/06 18:24:58;;;;;;;;;;;;;;;;;;5038670;28;19920;-82
2021/09/06 18:27:42;;;;;;;;;;;;;;;;;;5043326;28;19924;-83
2021/09/06 18:30:27;;;;;;;;;;;;;;;;;;5039791;28;19924;-83
2021/09/06 18:33:11;;;;;;;;;;;;;;;;;;5037622;28;19923;-82
2021/09/06 18:35:55;;;;;;;;;;;;;;;;;;5042866;28;19920;-81
2021/09/06 18:38:40;;;;;;;;;;;;;;;;;;5042168;28;20398;-82
2021/09/06 18:41:25;;;;;;;;;;;;;;;;;;5039230;28;19920;-82
2021/09/06 18:44:09;;;;;;;;;;;;;;;;;;5042202;28;19920;-82
2021/09/06 18:46:54;;;;;;;;;;;;;;;;;;5034049;28;19936;-82
2021/09/06 18:49:38;;;;;;;;;;;;;;;;;;5029977;28;19924;-82